Culmore, United Kingdom
Current Conditions -  °F | °C
As of 11:50 AM on Wednesday 28 Jan 2015 (Local Time) from EGAE Reporting Station
Rain Showers Rain Showers  
Wind Chill: 27°   Ceiling: Unl
Heat Index: 39°   Visibility: 6mi
Dew Point: 32°   Wind: 35mph
Humidity: 75%   Direction: 280°W
Pressure: 29.41"   Gusts: 49mph
Location:  55.05°N, 7.27°W
Report Text: EGAE 281150Z 28030G43KT 9999 VCSH FEW018 SCT024 04/M00 Q0996
Loading
Personal Weather Stations






























Interactive Weather Map New forecast layout! Learn more

10-Day Weather Forecast

Advertisements
Track Severe Weather on mobile